createdAt,value
2022-10-10T00:01:41.909Z,17.50
2022-10-10T00:04:10.484Z,17.40
2022-10-10T00:06:39.051Z,17.40
2022-10-10T00:09:08.524Z,17.40
2022-10-10T00:11:37.175Z,17.50
2022-10-10T00:14:07.517Z,17.50
2022-10-10T00:16:36.234Z,17.50
2022-10-10T00:19:04.872Z,17.60
2022-10-10T00:21:33.517Z,17.60
2022-10-10T00:24:03.311Z,17.70
2022-10-10T00:26:32.245Z,17.70
2022-10-10T00:29:00.843Z,17.70
2022-10-10T00:31:30.901Z,17.60
2022-10-10T00:33:59.472Z,17.70
2022-10-10T00:36:29.443Z,17.70
2022-10-10T00:38:58.037Z,17.70
2022-10-10T00:41:27.045Z,17.50
2022-10-10T00:44:07.136Z,17.60
2022-10-10T00:46:37.494Z,17.60
2022-10-10T00:49:11.145Z,17.60
2022-10-10T00:51:39.911Z,17.60
2022-10-10T00:54:12.527Z,17.40
2022-10-10T00:56:45.220Z,17.30
2022-10-10T00:59:13.900Z,17.10
2022-10-10T01:01:44.344Z,17.30
2022-10-10T01:04:31.591Z,17.30
2022-10-10T01:07:01.447Z,17.30
2022-10-10T01:09:31.357Z,17.40
2022-10-10T01:12:12.164Z,17.40
2022-10-10T01:14:48.090Z,17.40
2022-10-10T01:17:31.408Z,17.40
2022-10-10T01:20:38.819Z,17.50
2022-10-10T01:23:26.783Z,17.50
2022-10-10T01:26:12.651Z,17.20
2022-10-10T01:28:48.817Z,17.40
2022-10-10T01:31:22.738Z,17.40
2022-10-10T01:34:04.882Z,17.30
2022-10-10T01:36:40.151Z,17.30
2022-10-10T01:39:14.882Z,17.40
2022-10-10T01:41:48.883Z,17.30
2022-10-10T01:44:20.617Z,17.30
2022-10-10T01:46:49.373Z,17.30
2022-10-10T01:49:18.583Z,17.30
2022-10-10T01:51:59.669Z,17.00
2022-10-10T01:54:39.984Z,17.10
2022-10-10T01:57:21.082Z,17.10
2022-10-10T02:00:00.825Z,17.20
2022-10-10T02:02:38.874Z,17.20
2022-10-10T02:05:15.753Z,17.20
2022-10-10T02:07:50.362Z,17.30
2022-10-10T02:10:22.890Z,17.20
2022-10-10T02:12:53.109Z,17.20
2022-10-10T02:15:26.631Z,17.30
2022-10-10T02:17:58.063Z,17.30
2022-10-10T02:20:29.892Z,17.30
2022-10-10T02:22:58.982Z,17.30
2022-10-10T02:25:31.774Z,17.30
2022-10-10T02:28:08.715Z,17.30
2022-10-10T02:30:42.977Z,17.20
2022-10-10T02:33:15.420Z,17.30
2022-10-10T02:35:49.660Z,17.30
2022-10-10T02:38:19.715Z,17.30
2022-10-10T02:40:50.553Z,17.20
2022-10-10T02:43:20.484Z,17.30
2022-10-10T02:45:50.958Z,17.30
2022-10-10T02:48:20.091Z,17.30
2022-10-10T02:50:49.298Z,17.30
2022-10-10T02:53:17.971Z,17.30
2022-10-10T02:55:46.663Z,17.20
2022-10-10T02:58:15.327Z,17.10
2022-10-10T03:00:44.110Z,16.90
2022-10-10T03:03:14.257Z,17.00
2022-10-10T03:05:42.903Z,17.00
2022-10-10T03:08:12.024Z,17.20
2022-10-10T03:10:43.904Z,17.30
2022-10-10T03:13:13.304Z,17.10
2022-10-10T03:15:41.894Z,17.20
2022-10-10T03:18:10.563Z,17.10
2022-10-10T03:20:40.682Z,17.10
2022-10-10T03:23:09.341Z,17.00
2022-10-10T03:25:42.686Z,17.00
2022-10-10T03:28:11.667Z,17.00
2022-10-10T03:30:40.929Z,17.00
2022-10-10T03:33:10.432Z,17.40
2022-10-10T03:35:40.915Z,17.00
2022-10-10T03:38:09.649Z,17.10
2022-10-10T03:40:42.129Z,16.90
2022-10-10T03:43:11.793Z,16.90
2022-10-10T03:45:42.775Z,16.80
2022-10-10T03:48:11.823Z,16.90
2022-10-10T03:50:41.993Z,16.80
2022-10-10T03:53:11.094Z,16.90
2022-10-10T03:55:41.633Z,16.90
2022-10-10T03:58:10.413Z,16.80
2022-10-10T04:00:39.144Z,16.80
2022-10-10T04:03:08.359Z,16.80
2022-10-10T04:05:37.793Z,16.90
2022-10-10T04:08:08.333Z,17.00
2022-10-10T04:10:37.007Z,17.00
2022-10-10T04:13:06.019Z,17.00
2022-10-10T04:15:35.314Z,17.00
2022-10-10T04:18:04.154Z,17.20
2022-10-10T04:20:33.303Z,16.90
2022-10-10T04:23:01.981Z,16.90
2022-10-10T04:25:32.532Z,16.90
2022-10-10T04:28:01.579Z,16.90
2022-10-10T04:30:33.374Z,17.00
2022-10-10T04:33:02.207Z,16.90
2022-10-10T04:35:30.955Z,17.00
2022-10-10T04:37:59.658Z,17.00
2022-10-10T04:40:28.448Z,17.10
2022-10-10T04:42:58.758Z,17.00
2022-10-10T04:45:27.591Z,17.00
2022-10-10T04:47:56.693Z,17.10
2022-10-10T04:50:26.350Z,17.20
2022-10-10T04:52:56.514Z,17.20
2022-10-10T04:55:25.168Z,17.20
2022-10-10T04:57:53.954Z,17.30
2022-10-10T05:00:24.274Z,17.20
2022-10-10T05:02:53.446Z,17.00
2022-10-10T05:05:22.390Z,17.10
2022-10-10T05:07:55.320Z,17.10
2022-10-10T05:10:24.491Z,17.30
2022-10-10T05:12:53.314Z,17.20
2022-10-10T05:15:23.672Z,17.10
2022-10-10T05:17:52.391Z,17.00
2022-10-10T05:20:21.095Z,16.80
2022-10-10T05:22:50.133Z,16.70
2022-10-10T05:25:19.185Z,17.10
2022-10-10T05:27:47.921Z,17.00
2022-10-10T05:30:17.011Z,17.10
2022-10-10T05:32:47.159Z,17.20
2022-10-10T05:35:15.923Z,17.10
2022-10-10T05:37:44.765Z,17.10
2022-10-10T05:40:13.439Z,17.00
2022-10-10T05:42:42.074Z,16.90
2022-10-10T05:45:11.617Z,16.80
2022-10-10T05:47:40.278Z,17.10
2022-10-10T05:50:26.415Z,16.90
2022-10-10T05:52:55.101Z,17.10
2022-10-10T05:55:23.759Z,17.10
2022-10-10T05:57:52.428Z,17.10
2022-10-10T06:00:21.165Z,17.10
2022-10-10T06:02:50.480Z,17.30
2022-10-10T06:05:20.805Z,17.40
2022-10-10T06:08:06.723Z,17.40
2022-10-10T06:10:39.676Z,17.40
2022-10-10T06:13:08.406Z,17.50
2022-10-10T06:15:37.227Z,17.50
2022-10-10T06:18:06.131Z,17.60
2022-10-10T06:20:37.673Z,17.70
2022-10-10T06:23:07.517Z,17.80
2022-10-10T06:25:41.711Z,17.80
2022-10-10T06:28:11.365Z,17.80
2022-10-10T06:30:45.230Z,17.90
2022-10-10T06:33:15.250Z,17.80
2022-10-10T06:35:48.560Z,18.00
2022-10-10T06:38:18.260Z,18.00
2022-10-10T06:40:47.311Z,18.10
2022-10-10T06:43:17.481Z,18.00
2022-10-10T06:45:47.554Z,18.10
2022-10-10T06:48:17.203Z,18.10
2022-10-10T06:50:57.983Z,18.10
2022-10-10T06:53:27.121Z,18.20
2022-10-10T06:55:56.631Z,18.00
2022-10-10T06:58:26.228Z,18.10
2022-10-10T07:00:56.212Z,18.10
2022-10-10T07:03:25.200Z,18.10
2022-10-10T07:05:57.024Z,18.20
2022-10-10T07:08:25.862Z,18.30
2022-10-10T07:10:54.588Z,18.40
2022-10-10T07:13:23.830Z,18.40
2022-10-10T07:15:52.498Z,18.40
2022-10-10T07:18:22.285Z,18.30
2022-10-10T07:20:51.281Z,18.40
2022-10-10T07:23:21.349Z,18.40
2022-10-10T07:25:50.039Z,18.40
2022-10-10T07:28:18.854Z,18.40
2022-10-10T07:30:49.260Z,18.50
2022-10-10T07:33:18.030Z,18.60
2022-10-10T07:35:54.814Z,18.50
2022-10-10T07:38:25.091Z,18.50
2022-10-10T07:40:53.790Z,18.50
2022-10-10T07:43:22.669Z,18.50
2022-10-10T07:45:51.426Z,18.60
2022-10-10T07:48:20.287Z,18.70
2022-10-10T07:50:48.944Z,18.80
2022-10-10T07:53:17.655Z,18.70
2022-10-10T07:55:47.740Z,18.70
2022-10-10T07:58:16.451Z,18.80
2022-10-10T08:00:45.271Z,18.90
2022-10-10T08:03:14.228Z,18.90
2022-10-10T08:05:43.681Z,19.30
2022-10-10T08:08:13.161Z,19.00
2022-10-10T08:10:45.100Z,19.00
2022-10-10T08:13:17.720Z,19.10
2022-10-10T08:15:46.391Z,19.30
2022-10-10T08:18:15.408Z,19.40
2022-10-10T08:20:44.440Z,19.50
2022-10-10T08:23:13.440Z,19.50
2022-10-10T08:25:42.132Z,19.70
2022-10-10T08:28:10.920Z,19.70
2022-10-10T08:30:43.331Z,19.60
2022-10-10T08:33:12.010Z,19.60
2022-10-10T08:35:41.270Z,19.80
2022-10-10T08:38:10.209Z,19.70
2022-10-10T08:40:46.020Z,19.60
2022-10-10T08:43:21.972Z,19.50
2022-10-10T08:45:54.053Z,19.50
2022-10-10T08:48:25.834Z,19.50
2022-10-10T08:50:59.962Z,19.60
2022-10-10T08:53:33.204Z,19.50
2022-10-10T08:56:04.048Z,19.50
2022-10-10T08:58:35.199Z,19.50
2022-10-10T09:01:11.461Z,19.70
2022-10-10T09:03:46.187Z,19.70
2022-10-10T09:06:35.399Z,19.80
2022-10-10T09:09:13.150Z,19.90
2022-10-10T09:11:52.951Z,19.80
2022-10-10T09:14:34.791Z,20.00
2022-10-10T09:17:17.105Z,20.00
2022-10-10T09:20:00.933Z,20.20
2022-10-10T09:22:33.514Z,20.40
2022-10-10T09:25:07.569Z,20.40
2022-10-10T09:27:40.165Z,20.40
2022-10-10T09:30:16.622Z,20.40
2022-10-10T09:32:52.130Z,20.50
2022-10-10T09:35:24.323Z,21.00
2022-10-10T09:37:58.660Z,21.30
2022-10-10T09:40:31.340Z,21.20
2022-10-10T09:43:02.644Z,21.00
2022-10-10T09:45:38.084Z,20.90
2022-10-10T09:48:11.182Z,20.80
2022-10-10T09:50:43.176Z,20.80
2022-10-10T09:53:15.864Z,21.30
2022-10-10T09:55:47.330Z,21.30
2022-10-10T09:58:22.784Z,21.10
2022-10-10T10:00:53.760Z,21.20
2022-10-10T10:03:24.697Z,21.50
2022-10-10T10:06:00.048Z,21.60
2022-10-10T10:08:31.603Z,21.60
2022-10-10T10:11:01.994Z,22.00
2022-10-10T10:13:33.590Z,22.40
2022-10-10T10:16:06.154Z,22.50
2022-10-10T10:18:42.529Z,22.50
2022-10-10T10:21:18.287Z,22.60
2022-10-10T10:23:53.464Z,22.60
2022-10-10T10:26:24.661Z,22.80
2022-10-10T10:28:54.949Z,22.70
2022-10-10T10:31:55.421Z,22.30
2022-10-10T10:35:04.963Z,22.30
2022-10-10T10:37:44.953Z,23.10
2022-10-10T10:40:25.170Z,23.50
2022-10-10T10:43:09.628Z,24.00
2022-10-10T10:45:51.465Z,24.00
2022-10-10T10:48:28.563Z,24.40
2022-10-10T10:51:04.079Z,24.10
2022-10-10T10:53:42.565Z,24.30
2022-10-10T10:56:22.199Z,23.90
2022-10-10T10:59:34.590Z,23.60
2022-10-10T11:01:58.768Z,24.20
2022-10-10T11:05:19.812Z,24.80
2022-10-10T11:07:45.300Z,24.30
2022-10-10T11:10:21.444Z,23.60
2022-10-10T11:13:02.007Z,23.20
2022-10-10T11:16:01.482Z,22.90
2022-10-10T11:18:30.975Z,22.70
2022-10-10T11:21:05.546Z,22.70
2022-10-10T11:23:41.362Z,22.70
2022-10-10T11:26:17.617Z,22.60
2022-10-10T11:28:51.771Z,22.70
2022-10-10T11:31:24.157Z,24.10
2022-10-10T11:33:58.846Z,23.80
2022-10-10T11:36:30.825Z,23.80
2022-10-10T11:39:05.929Z,23.50
2022-10-10T11:41:38.466Z,23.50
2022-10-10T11:44:13.969Z,24.00
2022-10-10T11:46:46.840Z,24.50
2022-10-10T11:49:23.362Z,24.60
2022-10-10T11:52:33.114Z,24.20
2022-10-10T11:55:11.654Z,23.90
2022-10-10T11:57:46.251Z,24.40
2022-10-10T12:00:17.144Z,25.80
2022-10-10T12:02:47.722Z,26.20
2022-10-10T12:05:22.903Z,26.50
2022-10-10T12:08:06.242Z,27.60
2022-10-10T12:10:40.711Z,27.10
2022-10-10T12:13:28.141Z,26.70
2022-10-10T12:15:59.348Z,25.20
2022-10-10T12:18:32.066Z,24.50
2022-10-10T12:21:09.113Z,24.90
2022-10-10T12:23:38.710Z,24.90
2022-10-10T12:26:13.995Z,25.20
2022-10-10T12:29:03.667Z,26.90
2022-10-10T12:31:37.027Z,27.90
2022-10-10T12:34:15.440Z,26.60
2022-10-10T12:37:13.036Z,26.10
2022-10-10T12:40:04.019Z,25.70
2022-10-10T12:42:38.686Z,25.20
2022-10-10T12:45:56.997Z,24.90
2022-10-10T12:48:26.694Z,24.60
2022-10-10T12:50:58.106Z,24.80
2022-10-10T12:53:29.544Z,24.80
2022-10-10T12:56:01.049Z,24.60
2022-10-10T12:58:33.208Z,24.80
2022-10-10T13:01:04.037Z,24.90
2022-10-10T13:03:36.055Z,24.40
2022-10-10T13:06:08.762Z,24.00
2022-10-10T13:08:38.668Z,24.10
2022-10-10T13:11:11.498Z,24.10
2022-10-10T13:13:49.746Z,24.10
2022-10-10T13:16:20.694Z,24.20
2022-10-10T13:18:53.749Z,24.10
2022-10-10T13:21:25.450Z,23.90
2022-10-10T13:24:03.319Z,23.60
2022-10-10T13:26:35.643Z,23.50
2022-10-10T13:29:19.935Z,23.50
2022-10-10T13:31:49.028Z,23.60
2022-10-10T13:34:24.767Z,23.60
2022-10-10T13:36:57.884Z,23.50
2022-10-10T13:39:27.495Z,23.40
2022-10-10T13:41:57.188Z,23.40
2022-10-10T13:44:33.160Z,23.20
2022-10-10T13:47:54.789Z,23.20
2022-10-10T13:50:27.299Z,23.30
2022-10-10T13:53:32.693Z,23.40
2022-10-10T13:56:07.534Z,23.20
2022-10-10T13:58:43.342Z,23.10
2022-10-10T14:01:32.305Z,23.30
2022-10-10T14:04:19.823Z,23.10
2022-10-10T14:07:05.871Z,23.10
2022-10-10T14:09:39.260Z,23.00
2022-10-10T14:12:17.004Z,22.90
2022-10-10T14:14:47.850Z,22.90
2022-10-10T14:17:18.198Z,22.80
2022-10-10T14:19:48.379Z,22.90
2022-10-10T14:22:17.224Z,23.10
2022-10-10T14:24:46.321Z,23.20
2022-10-10T14:27:22.715Z,23.00
2022-10-10T14:29:52.132Z,23.00
2022-10-10T14:32:23.101Z,23.00
2022-10-10T14:34:52.111Z,23.20
2022-10-10T14:37:24.585Z,23.30
2022-10-10T14:39:53.647Z,23.30
2022-10-10T14:42:23.841Z,23.40
2022-10-10T14:44:52.671Z,23.70
2022-10-10T14:47:25.618Z,24.00
2022-10-10T14:49:56.812Z,24.10
2022-10-10T14:52:25.768Z,24.20
2022-10-10T14:54:54.909Z,24.50
2022-10-10T14:57:23.748Z,24.00
2022-10-10T14:59:52.460Z,24.00
2022-10-10T15:02:23.695Z,24.50
2022-10-10T15:04:52.789Z,25.60
2022-10-10T15:07:21.980Z,25.80
2022-10-10T15:10:26.034Z,25.00
2022-10-10T15:12:42.313Z,24.40
2022-10-10T15:15:13.125Z,24.40
2022-10-10T15:17:43.749Z,24.80
2022-10-10T15:20:14.103Z,24.90
2022-10-10T15:22:43.767Z,24.90
2022-10-10T15:25:12.585Z,25.00
2022-10-10T15:27:41.566Z,25.10
2022-10-10T15:30:11.913Z,25.20
2022-10-10T15:32:43.447Z,25.30
2022-10-10T15:35:16.572Z,25.00
2022-10-10T15:37:46.314Z,24.60
2022-10-10T15:40:17.507Z,24.40
2022-10-10T15:42:46.269Z,24.20
2022-10-10T15:45:30.992Z,23.90
2022-10-10T15:48:06.075Z,23.60
2022-10-10T15:50:39.449Z,23.50
2022-10-10T15:53:08.851Z,23.40
2022-10-10T15:55:44.172Z,23.40
2022-10-10T15:58:13.180Z,23.50
2022-10-10T16:00:43.646Z,23.50
2022-10-10T16:03:14.080Z,23.20
2022-10-10T16:05:43.874Z,23.10
2022-10-10T16:08:13.625Z,22.80
2022-10-10T16:10:43.985Z,22.60
2022-10-10T16:13:13.044Z,22.50
2022-10-10T16:15:41.836Z,22.30
2022-10-10T16:18:10.693Z,22.20
2022-10-10T16:20:41.524Z,22.10
2022-10-10T16:23:10.335Z,22.00
2022-10-10T16:25:39.091Z,21.90
2022-10-10T16:28:07.953Z,21.50
2022-10-10T16:30:36.827Z,21.60
2022-10-10T16:33:05.702Z,21.60
2022-10-10T16:35:38.664Z,21.60
2022-10-10T16:38:09.161Z,21.60
2022-10-10T16:40:38.492Z,21.40
2022-10-10T16:43:07.514Z,21.30
2022-10-10T16:45:36.349Z,21.20
2022-10-10T16:48:05.185Z,21.00
2022-10-10T16:50:33.963Z,20.90
2022-10-10T16:53:02.777Z,21.00
2022-10-10T16:55:35.312Z,21.00
2022-10-10T16:58:04.127Z,21.00
2022-10-10T17:00:32.945Z,21.00
2022-10-10T17:03:01.993Z,21.00
2022-10-10T17:05:30.833Z,20.90
2022-10-10T17:08:00.062Z,20.90
2022-10-10T17:10:28.876Z,20.80
2022-10-10T17:12:59.480Z,20.70
2022-10-10T17:15:28.334Z,20.70
2022-10-10T17:17:57.133Z,20.70
2022-10-10T17:20:26.002Z,20.70
2022-10-10T17:22:54.784Z,20.60
2022-10-10T17:25:23.592Z,20.50
2022-10-10T17:27:52.412Z,20.40
2022-10-10T17:30:22.574Z,20.10
2022-10-10T17:32:52.886Z,19.80
2022-10-10T17:35:21.657Z,19.90
2022-10-10T17:37:50.496Z,19.80
2022-10-10T17:40:19.457Z,19.60
2022-10-10T17:42:48.234Z,19.50
2022-10-10T17:45:17.153Z,19.30
2022-10-10T17:47:47.397Z,19.30
2022-10-10T17:50:16.251Z,19.30
2022-10-10T17:52:45.436Z,19.40
2022-10-10T17:55:14.225Z,19.30
2022-10-10T17:57:48.326Z,19.10
2022-10-10T18:00:19.216Z,18.80
2022-10-10T18:02:49.486Z,18.70
2022-10-10T18:05:18.651Z,18.70
2022-10-10T18:07:48.037Z,18.80
2022-10-10T18:10:16.980Z,18.80
2022-10-10T18:12:45.835Z,18.70
2022-10-10T18:15:14.726Z,18.90
2022-10-10T18:17:43.500Z,18.70
2022-10-10T18:20:14.326Z,18.70
2022-10-10T18:22:43.188Z,18.70
2022-10-10T18:25:12.097Z,18.70
2022-10-10T18:27:40.886Z,18.80
2022-10-10T18:30:10.526Z,18.90
2022-10-10T18:32:39.336Z,18.90
2022-10-10T18:35:08.819Z,18.70
2022-10-10T18:37:39.746Z,18.70
2022-10-10T18:40:09.646Z,18.80
2022-10-10T18:42:38.606Z,18.90
2022-10-10T18:45:08.679Z,19.10
2022-10-10T18:47:37.524Z,19.20
2022-10-10T18:50:07.045Z,19.20
2022-10-10T18:52:36.184Z,19.20
2022-10-10T18:55:07.423Z,19.30
2022-10-10T18:57:36.694Z,19.30
2022-10-10T19:00:08.227Z,19.30
2022-10-10T19:02:37.021Z,19.40
2022-10-10T19:05:06.523Z,19.10
2022-10-10T19:07:35.333Z,18.80
2022-10-10T19:10:06.928Z,18.90
2022-10-10T19:12:36.822Z,19.00
2022-10-10T19:15:06.274Z,18.90
2022-10-10T19:17:36.296Z,18.70
2022-10-10T19:20:06.114Z,18.90
2022-10-10T19:22:34.987Z,18.90
2022-10-10T19:25:03.947Z,18.80
2022-10-10T19:27:34.833Z,18.80
2022-10-10T19:30:04.137Z,18.90
2022-10-10T19:32:32.968Z,18.90
2022-10-10T19:35:01.848Z,18.80
2022-10-10T19:37:31.078Z,18.60
2022-10-10T19:39:59.905Z,18.60
2022-10-10T19:42:29.511Z,18.70
2022-10-10T19:45:00.025Z,18.70
2022-10-10T19:47:28.830Z,18.60
2022-10-10T19:49:57.732Z,18.60
2022-10-10T19:52:26.727Z,18.60
2022-10-10T19:54:55.527Z,18.60
2022-10-10T19:57:24.346Z,18.50
2022-10-10T19:59:54.093Z,18.40
2022-10-10T20:02:24.364Z,18.20
2022-10-10T20:04:53.185Z,18.20
2022-10-10T20:07:21.954Z,18.30
2022-10-10T20:09:50.860Z,18.30
2022-10-10T20:12:20.261Z,18.30
2022-10-10T20:14:49.067Z,18.40
2022-10-10T20:17:17.961Z,18.50
2022-10-10T20:19:48.460Z,18.40
2022-10-10T20:22:17.391Z,18.40
2022-10-10T20:24:46.270Z,18.40
2022-10-10T20:27:15.237Z,18.20
2022-10-10T20:29:44.185Z,18.00
2022-10-10T20:32:14.286Z,17.90
2022-10-10T20:34:43.153Z,18.00
2022-10-10T20:37:13.373Z,18.10
2022-10-10T20:39:42.701Z,18.20
2022-10-10T20:42:11.528Z,18.00
2022-10-10T20:44:40.908Z,17.80
2022-10-10T20:47:09.747Z,17.80
2022-10-10T20:49:38.597Z,18.00
2022-10-10T20:52:07.426Z,18.00
2022-10-10T20:54:37.780Z,18.00
2022-10-10T20:57:06.579Z,18.00
2022-10-10T20:59:35.346Z,17.90
2022-10-10T21:02:04.471Z,18.00
2022-10-10T21:04:33.276Z,18.00
2022-10-10T21:07:02.070Z,17.80
2022-10-10T21:09:31.736Z,18.00
2022-10-10T21:12:02.030Z,18.10
2022-10-10T21:14:30.989Z,18.20
2022-10-10T21:16:59.742Z,18.10
2022-10-10T21:19:28.620Z,18.10
2022-10-10T21:21:57.385Z,18.10
2022-10-10T21:24:26.121Z,18.10
2022-10-10T21:26:55.398Z,18.10
2022-10-10T21:29:25.818Z,18.10
2022-10-10T21:31:54.575Z,18.10
2022-10-10T21:34:23.372Z,18.20
2022-10-10T21:36:52.139Z,18.10
2022-10-10T21:39:21.130Z,18.20
2022-10-10T21:41:50.579Z,18.10
2022-10-10T21:44:19.365Z,17.80
2022-10-10T21:46:50.112Z,17.80
2022-10-10T21:49:18.822Z,17.60
2022-10-10T21:51:47.591Z,17.60
2022-10-10T21:54:16.580Z,17.70
2022-10-10T21:56:45.402Z,17.50
2022-10-10T21:59:14.263Z,17.60
2022-10-10T22:01:44.316Z,17.50
2022-10-10T22:04:14.565Z,17.60
2022-10-10T22:06:44.821Z,17.40
2022-10-10T22:09:13.594Z,17.50
2022-10-10T22:11:42.373Z,17.60
2022-10-10T22:14:11.151Z,17.40
2022-10-10T22:16:40.035Z,17.30
2022-10-10T22:19:08.823Z,17.40
2022-10-10T22:21:39.088Z,17.40
2022-10-10T22:24:09.125Z,17.50
2022-10-10T22:26:38.623Z,17.50
2022-10-10T22:29:07.421Z,17.60
2022-10-10T22:31:37.968Z,17.50
2022-10-10T22:34:08.166Z,17.50
2022-10-10T22:36:38.562Z,17.40
2022-10-10T22:39:09.076Z,17.40
2022-10-10T22:41:37.873Z,17.40
2022-10-10T22:44:06.861Z,17.50
2022-10-10T22:46:35.800Z,17.50
2022-10-10T22:49:05.035Z,17.30
2022-10-10T22:51:33.997Z,17.10
2022-10-10T22:54:04.422Z,17.10
2022-10-10T22:56:33.670Z,17.30
2022-10-10T22:59:02.723Z,17.20
2022-10-10T23:01:31.578Z,17.20
2022-10-10T23:04:03.592Z,17.10
2022-10-10T23:06:32.406Z,17.10
2022-10-10T23:09:01.095Z,17.10
2022-10-10T23:11:31.712Z,17.10
2022-10-10T23:14:00.513Z,17.10
2022-10-10T23:16:32.576Z,17.10
2022-10-10T23:19:01.747Z,17.20
2022-10-10T23:21:30.566Z,17.20
2022-10-10T23:23:59.354Z,17.10
2022-10-10T23:26:28.161Z,17.20
2022-10-10T23:28:58.475Z,17.20
2022-10-10T23:31:27.355Z,17.10
2022-10-10T23:33:56.137Z,17.20
2022-10-10T23:36:24.971Z,17.00
2022-10-10T23:38:53.705Z,17.00
2022-10-10T23:41:23.787Z,16.90
2022-10-10T23:43:52.677Z,16.90
2022-10-10T23:46:24.283Z,16.90
2022-10-10T23:48:53.076Z,16.90
2022-10-10T23:51:21.804Z,16.80
2022-10-10T23:53:50.649Z,16.90
2022-10-10T23:56:19.476Z,16.80
2022-10-10T23:58:48.386Z,16.70
